sensor_id;sensor_type;location;lat;lon;timestamp;pressure;altitude;pressure_sealevel;temperature;humidity
10480;BME280;12789;42.610;23.040;2022-08-02T00:00:58;93559.97;;;15.88;100.00
10480;BME280;12789;42.610;23.040;2022-08-02T00:03:25;93547.38;;;16.06;100.00
10480;BME280;12789;42.610;23.040;2022-08-02T00:05:54;93548.25;;;15.84;100.00
10480;BME280;12789;42.610;23.040;2022-08-02T00:08:21;93544.22;;;16.10;100.00
10480;BME280;12789;42.610;23.040;2022-08-02T00:10:48;93550.59;;;15.79;100.00
10480;BME280;12789;42.610;23.040;2022-08-02T00:13:15;93548.16;;;15.92;100.00
10480;BME280;12789;42.610;23.040;2022-08-02T00:15:42;93547.72;;;16.03;100.00
10480;BME280;12789;42.610;23.040;2022-08-02T00:18:09;93554.09;;;15.86;100.00
10480;BME280;12789;42.610;23.040;2022-08-02T00:20:37;93550.88;;;15.84;100.00
10480;BME280;12789;42.610;23.040;2022-08-02T00:23:05;93555.53;;;15.88;100.00
10480;BME280;12789;42.610;23.040;2022-08-02T00:25:32;93562.31;;;15.83;100.00
10480;BME280;12789;42.610;23.040;2022-08-02T00:27:59;93555.19;;;15.77;100.00
10480;BME280;12789;42.610;23.040;2022-08-02T00:30:26;93548.72;;;15.65;100.00
10480;BME280;12789;42.610;23.040;2022-08-02T00:32:53;93554.59;;;15.67;100.00
10480;BME280;12789;42.610;23.040;2022-08-02T00:35:20;93557.19;;;15.67;100.00
10480;BME280;12789;42.610;23.040;2022-08-02T00:37:47;93547.69;;;15.74;100.00
10480;BME280;12789;42.610;23.040;2022-08-02T00:40:20;93549.38;;;15.67;100.00
10480;BME280;12789;42.610;23.040;2022-08-02T00:42:59;93549.72;;;15.64;100.00
10480;BME280;12789;42.610;23.040;2022-08-02T00:45:28;93542.16;;;15.54;100.00
10480;BME280;12789;42.610;23.040;2022-08-02T00:47:55;93553.53;;;15.39;100.00
10480;BME280;12789;42.610;23.040;2022-08-02T00:50:23;93550.34;;;15.66;100.00
10480;BME280;12789;42.610;23.040;2022-08-02T00:52:50;93540.75;;;15.44;100.00
10480;BME280;12789;42.610;23.040;2022-08-02T00:55:19;93548.72;;;15.65;100.00
10480;BME280;12789;42.610;23.040;2022-08-02T00:57:47;93540.44;;;15.61;100.00
10480;BME280;12789;42.610;23.040;2022-08-02T01:00:15;93530.31;;;15.44;100.00
10480;BME280;12789;42.610;23.040;2022-08-02T01:02:42;93540.97;;;15.57;100.00
10480;BME280;12789;42.610;23.040;2022-08-02T01:05:09;93544.34;;;15.43;100.00
10480;BME280;12789;42.610;23.040;2022-08-02T01:07:37;93536.81;;;15.85;100.00
10480;BME280;12789;42.610;23.040;2022-08-02T01:10:04;93545.84;;;15.60;100.00
10480;BME280;12789;42.610;23.040;2022-08-02T01:12:34;93537.94;;;15.45;100.00
10480;BME280;12789;42.610;23.040;2022-08-02T01:15:05;93544.34;;;15.65;100.00
10480;BME280;12789;42.610;23.040;2022-08-02T01:17:39;93539.13;;;15.43;100.00
10480;BME280;12789;42.610;23.040;2022-08-02T01:20:16;93546.47;;;15.62;100.00
10480;BME280;12789;42.610;23.040;2022-08-02T01:23:08;93543.47;;;15.28;100.00
10480;BME280;12789;42.610;23.040;2022-08-02T01:26:06;93537.94;;;15.45;100.00
10480;BME280;12789;42.610;23.040;2022-08-02T01:28:38;93537.75;;;15.24;100.00
10480;BME280;12789;42.610;23.040;2022-08-02T01:31:14;93529.59;;;15.27;100.00
10480;BME280;12789;42.610;23.040;2022-08-02T01:33:46;93530.78;;;15.17;100.00
10480;BME280;12789;42.610;23.040;2022-08-02T01:36:16;93539.47;;;15.40;100.00
10480;BME280;12789;42.610;23.040;2022-08-02T01:38:47;93533.28;;;15.41;100.00
10480;BME280;12789;42.610;23.040;2022-08-02T01:41:18;93547.09;;;15.19;100.00
10480;BME280;12789;42.610;23.040;2022-08-02T01:43:51;93541.19;;;15.25;100.00
10480;BME280;12789;42.610;23.040;2022-08-02T01:46:19;93535.75;;;15.34;100.00
10480;BME280;12789;42.610;23.040;2022-08-02T01:48:47;93535.41;;;15.37;100.00
10480;BME280;12789;42.610;23.040;2022-08-02T01:51:19;93544.53;;;15.11;100.00
10480;BME280;12789;42.610;23.040;2022-08-02T01:54:11;93530.78;;;15.17;100.00
10480;BME280;12789;42.610;23.040;2022-08-02T01:56:40;93525.97;;;15.06;100.00
10480;BME280;12789;42.610;23.040;2022-08-02T01:59:13;93545.94;;;14.99;100.00
10480;BME280;12789;42.610;23.040;2022-08-02T02:01:45;93534.88;;;14.89;100.00
10480;BME280;12789;42.610;23.040;2022-08-02T02:04:14;93531.91;;;15.00;100.00
10480;BME280;12789;42.610;23.040;2022-08-02T02:06:42;93532.69;;;15.00;100.00
10480;BME280;12789;42.610;23.040;2022-08-02T02:09:13;93528.75;;;15.04;100.00
10480;BME280;12789;42.610;23.040;2022-08-02T02:11:42;93525.69;;;15.01;100.00
10480;BME280;12789;42.610;23.040;2022-08-02T02:14:11;93526.13;;;14.82;100.00
10480;BME280;12789;42.610;23.040;2022-08-02T02:16:40;93532.88;;;14.99;100.00
10480;BME280;12789;42.610;23.040;2022-08-02T02:19:08;93538.25;;;14.97;100.00
10480;BME280;12789;42.610;23.040;2022-08-02T02:21:36;93529.28;;;15.00;100.00
10480;BME280;12789;42.610;23.040;2022-08-02T02:24:04;93525.63;;;14.87;100.00
10480;BME280;12789;42.610;23.040;2022-08-02T02:26:32;93528.34;;;14.93;100.00
10480;BME280;12789;42.610;23.040;2022-08-02T02:29:02;93532.53;;;14.72;100.00
10480;BME280;12789;42.610;23.040;2022-08-02T02:31:35;93539.25;;;14.66;100.00
10480;BME280;12789;42.610;23.040;2022-08-02T02:34:06;93530.00;;;14.86;100.00
10480;BME280;12789;42.610;23.040;2022-08-02T02:36:36;93534.22;;;14.95;100.00
10480;BME280;12789;42.610;23.040;2022-08-02T02:39:06;93539.09;;;14.98;100.00
10480;BME280;12789;42.610;23.040;2022-08-02T02:41:36;93542.03;;;14.95;100.00
10480;BME280;12789;42.610;23.040;2022-08-02T02:44:04;93534.56;;;14.92;100.00
10480;BME280;12789;42.610;23.040;2022-08-02T02:46:34;93527.41;;;14.86;100.00
10480;BME280;12789;42.610;23.040;2022-08-02T02:49:03;93524.78;;;14.86;100.00
10480;BME280;12789;42.610;23.040;2022-08-02T02:51:30;93530.88;;;14.79;100.00
10480;BME280;12789;42.610;23.040;2022-08-02T02:53:59;93513.59;;;14.47;100.00
10480;BME280;12789;42.610;23.040;2022-08-02T02:56:27;93531.03;;;14.77;100.00
10480;BME280;12789;42.610;23.040;2022-08-02T02:58:54;93508.66;;;14.60;100.00
10480;BME280;12789;42.610;23.040;2022-08-02T03:01:22;93524.97;;;14.54;100.00
10480;BME280;12789;42.610;23.040;2022-08-02T03:04:00;93525.13;;;14.53;100.00
10480;BME280;12789;42.610;23.040;2022-08-02T03:06:27;93524.88;;;14.40;100.00
10480;BME280;12789;42.610;23.040;2022-08-02T03:08:55;93518.97;;;14.76;100.00
10480;BME280;12789;42.610;23.040;2022-08-02T03:11:22;93534.56;;;14.23;100.00
10480;BME280;12789;42.610;23.040;2022-08-02T03:13:55;93528.88;;;14.50;100.00
10480;BME280;12789;42.610;23.040;2022-08-02T03:16:23;93520.19;;;14.66;100.00
10480;BME280;12789;42.610;23.040;2022-08-02T03:18:53;93515.88;;;14.42;100.00
10480;BME280;12789;42.610;23.040;2022-08-02T03:21:22;93517.50;;;14.43;100.00
10480;BME280;12789;42.610;23.040;2022-08-02T03:23:49;93513.91;;;14.44;100.00
10480;BME280;12789;42.610;23.040;2022-08-02T03:26:16;93533.44;;;14.56;100.00
10480;BME280;12789;42.610;23.040;2022-08-02T03:28:44;93529.31;;;14.31;100.00
10480;BME280;12789;42.610;23.040;2022-08-02T03:31:11;93531.47;;;14.58;100.00
10480;BME280;12789;42.610;23.040;2022-08-02T03:33:39;93538.06;;;14.38;100.00
10480;BME280;12789;42.610;23.040;2022-08-02T03:36:10;93531.09;;;14.69;100.00
10480;BME280;12789;42.610;23.040;2022-08-02T03:38:39;93537.38;;;14.44;100.00
10480;BME280;12789;42.610;23.040;2022-08-02T03:41:09;93537.13;;;14.31;100.00
10480;BME280;12789;42.610;23.040;2022-08-02T03:43:37;93529.47;;;14.38;100.00
10480;BME280;12789;42.610;23.040;2022-08-02T03:46:05;93538.16;;;14.22;100.00
10480;BME280;12789;42.610;23.040;2022-08-02T03:48:35;93540.03;;;14.36;100.00
10480;BME280;12789;42.610;23.040;2022-08-02T03:51:02;93553.88;;;14.75;100.00
10480;BME280;12789;42.610;23.040;2022-08-02T03:53:29;93542.25;;;14.55;100.00
10480;BME280;12789;42.610;23.040;2022-08-02T03:55:59;93543.34;;;14.22;100.00
10480;BME280;12789;42.610;23.040;2022-08-02T03:58:26;93543.75;;;14.50;100.00
10480;BME280;12789;42.610;23.040;2022-08-02T04:00:54;93548.41;;;14.62;100.00
10480;BME280;12789;42.610;23.040;2022-08-02T04:03:22;93546.44;;;14.64;100.00
10480;BME280;12789;42.610;23.040;2022-08-02T04:05:49;93553.41;;;14.72;100.00
10480;BME280;12789;42.610;23.040;2022-08-02T04:08:16;93556.31;;;14.38;100.00
10480;BME280;12789;42.610;23.040;2022-08-02T04:10:44;93548.31;;;14.48;100.00
10480;BME280;12789;42.610;23.040;2022-08-02T04:13:31;93550.72;;;14.57;100.00
10480;BME280;12789;42.610;23.040;2022-08-02T04:16:03;93561.09;;;14.35;100.00
10480;BME280;12789;42.610;23.040;2022-08-02T04:18:37;93550.38;;;14.60;100.00
10480;BME280;12789;42.610;23.040;2022-08-02T04:21:06;93556.59;;;14.51;100.00
10480;BME280;12789;42.610;23.040;2022-08-02T04:23:38;93560.31;;;14.57;100.00
10480;BME280;12789;42.610;23.040;2022-08-02T04:26:07;93558.06;;;14.54;100.00
10480;BME280;12789;42.610;23.040;2022-08-02T04:28:37;93557.69;;;14.10;100.00
10480;BME280;12789;42.610;23.040;2022-08-02T04:31:06;93552.03;;;14.53;100.00
10480;BME280;12789;42.610;23.040;2022-08-02T04:33:35;93559.34;;;14.19;100.00
10480;BME280;12789;42.610;23.040;2022-08-02T04:36:05;93556.09;;;14.17;100.00
10480;BME280;12789;42.610;23.040;2022-08-02T04:38:36;93564.41;;;14.59;100.00
10480;BME280;12789;42.610;23.040;2022-08-02T04:41:03;93563.56;;;14.97;100.00
10480;BME280;12789;42.610;23.040;2022-08-02T04:43:30;93559.19;;;14.59;100.00
10480;BME280;12789;42.610;23.040;2022-08-02T04:45:59;93559.34;;;14.88;100.00
10480;BME280;12789;42.610;23.040;2022-08-02T04:48:27;93573.03;;;14.90;100.00
10480;BME280;12789;42.610;23.040;2022-08-02T04:50:54;93567.41;;;15.09;100.00
10480;BME280;12789;42.610;23.040;2022-08-02T04:53:22;93568.34;;;15.16;100.00
10480;BME280;12789;42.610;23.040;2022-08-02T04:55:49;93566.50;;;15.24;100.00
10480;BME280;12789;42.610;23.040;2022-08-02T04:58:16;93565.00;;;14.99;100.00
10480;BME280;12789;42.610;23.040;2022-08-02T05:00:44;93564.34;;;15.28;100.00
10480;BME280;12789;42.610;23.040;2022-08-02T05:03:13;93562.34;;;15.60;100.00
10480;BME280;12789;42.610;23.040;2022-08-02T05:05:40;93561.59;;;15.52;100.00
10480;BME280;12789;42.610;23.040;2022-08-02T05:08:07;93560.19;;;15.41;100.00
10480;BME280;12789;42.610;23.040;2022-08-02T05:10:35;93563.28;;;15.45;100.00
10480;BME280;12789;42.610;23.040;2022-08-02T05:13:03;93548.69;;;15.50;100.00
10480;BME280;12789;42.610;23.040;2022-08-02T05:15:31;93564.25;;;16.18;100.00
10480;BME280;12789;42.610;23.040;2022-08-02T05:17:59;93582.66;;;21.44;100.00
10480;BME280;12789;42.610;23.040;2022-08-02T05:20:28;93582.50;;;20.82;100.00
10480;BME280;12789;42.610;23.040;2022-08-02T05:22:55;93583.34;;;21.26;96.08
10480;BME280;12789;42.610;23.040;2022-08-02T05:25:22;93579.63;;;20.77;95.04
10480;BME280;12789;42.610;23.040;2022-08-02T05:27:49;93579.75;;;21.21;95.49
10480;BME280;12789;42.610;23.040;2022-08-02T05:30:17;93577.72;;;21.60;92.87
10480;BME280;12789;42.610;23.040;2022-08-02T05:32:46;93574.38;;;21.84;89.29
10480;BME280;12789;42.610;23.040;2022-08-02T05:35:17;93581.63;;;21.89;87.42
10480;BME280;12789;42.610;23.040;2022-08-02T05:37:46;93581.50;;;21.33;89.54
10480;BME280;12789;42.610;23.040;2022-08-02T05:40:15;93589.38;;;21.84;87.75
10480;BME280;12789;42.610;23.040;2022-08-02T05:42:42;93588.59;;;21.39;88.01
10480;BME280;12789;42.610;23.040;2022-08-02T05:45:10;93596.13;;;21.73;87.70
10480;BME280;12789;42.610;23.040;2022-08-02T05:47:37;93587.81;;;22.38;84.32
10480;BME280;12789;42.610;23.040;2022-08-02T05:50:06;93588.25;;;22.29;83.87
10480;BME280;12789;42.610;23.040;2022-08-02T05:52:44;93590.59;;;22.12;85.01
10480;BME280;12789;42.610;23.040;2022-08-02T05:55:16;93599.84;;;21.66;86.23
10480;BME280;12789;42.610;23.040;2022-08-02T05:57:51;93597.97;;;21.29;87.29
10480;BME280;12789;42.610;23.040;2022-08-02T06:00:21;93608.41;;;19.88;90.31
10480;BME280;12789;42.610;23.040;2022-08-02T06:03:14;93598.97;;;19.40;93.42
10480;BME280;12789;42.610;23.040;2022-08-02T06:05:49;93605.09;;;21.22;88.44
10480;BME280;12789;42.610;23.040;2022-08-02T06:08:18;93607.00;;;21.46;86.22
10480;BME280;12789;42.610;23.040;2022-08-02T06:10:47;93607.25;;;21.82;84.86
10480;BME280;12789;42.610;23.040;2022-08-02T06:13:15;93609.13;;;21.75;84.31
10480;BME280;12789;42.610;23.040;2022-08-02T06:15:42;93610.84;;;20.93;83.49
10480;BME280;12789;42.610;23.040;2022-08-02T06:18:09;93608.19;;;21.63;87.01
10480;BME280;12789;42.610;23.040;2022-08-02T06:20:37;93603.69;;;21.13;85.46
10480;BME280;12789;42.610;23.040;2022-08-02T06:23:06;93604.31;;;21.65;84.14
10480;BME280;12789;42.610;23.040;2022-08-02T06:25:35;93601.44;;;22.04;82.02
10480;BME280;12789;42.610;23.040;2022-08-02T06:28:05;93606.25;;;22.14;82.62
10480;BME280;12789;42.610;23.040;2022-08-02T06:30:32;93606.72;;;22.29;76.71
10480;BME280;12789;42.610;23.040;2022-08-02T06:32:59;93609.59;;;21.02;91.46
10480;BME280;12789;42.610;23.040;2022-08-02T06:35:32;93618.13;;;20.78;81.82
10480;BME280;12789;42.610;23.040;2022-08-02T06:38:01;93619.41;;;20.82;82.65
10480;BME280;12789;42.610;23.040;2022-08-02T06:40:30;93612.44;;;22.26;81.44
10480;BME280;12789;42.610;23.040;2022-08-02T06:43:16;93605.91;;;21.66;78.54
10480;BME280;12789;42.610;23.040;2022-08-02T06:45:43;93607.44;;;21.87;80.43
10480;BME280;12789;42.610;23.040;2022-08-02T06:48:11;93604.81;;;23.09;78.09
10480;BME280;12789;42.610;23.040;2022-08-02T06:50:38;93594.78;;;22.75;71.57
10480;BME280;12789;42.610;23.040;2022-08-02T06:53:07;93597.06;;;21.48;72.51
10480;BME280;12789;42.610;23.040;2022-08-02T06:55:34;93593.56;;;21.67;73.86
10480;BME280;12789;42.610;23.040;2022-08-02T06:58:01;93587.84;;;22.98;77.21
10480;BME280;12789;42.610;23.040;2022-08-02T07:00:30;93587.53;;;22.88;70.47
10480;BME280;12789;42.610;23.040;2022-08-02T07:02:57;93591.13;;;22.76;72.10
10480;BME280;12789;42.610;23.040;2022-08-02T07:05:25;93590.56;;;22.50;72.87
10480;BME280;12789;42.610;23.040;2022-08-02T07:07:52;93594.88;;;23.04;75.87
10480;BME280;12789;42.610;23.040;2022-08-02T07:10:19;93590.91;;;23.38;72.48
10480;BME280;12789;42.610;23.040;2022-08-02T07:12:46;93581.56;;;22.75;70.20
10480;BME280;12789;42.610;23.040;2022-08-02T07:15:13;93585.28;;;22.68;69.53
10480;BME280;12789;42.610;23.040;2022-08-02T07:17:42;93586.56;;;22.65;74.35
10480;BME280;12789;42.610;23.040;2022-08-02T07:20:09;93578.72;;;23.48;69.98
10480;BME280;12789;42.610;23.040;2022-08-02T07:22:38;93583.28;;;23.59;69.03
10480;BME280;12789;42.610;23.040;2022-08-02T07:25:05;93575.09;;;24.08;69.40
10480;BME280;12789;42.610;23.040;2022-08-02T07:27:33;93575.47;;;24.23;71.27
10480;BME280;12789;42.610;23.040;2022-08-02T07:30:00;93574.75;;;24.16;69.59
10480;BME280;12789;42.610;23.040;2022-08-02T07:32:29;93580.16;;;24.10;71.58
10480;BME280;12789;42.610;23.040;2022-08-02T07:35:00;93568.44;;;24.29;66.91
10480;BME280;12789;42.610;23.040;2022-08-02T07:37:28;93571.50;;;23.55;68.89
10480;BME280;12789;42.610;23.040;2022-08-02T07:39:55;93570.88;;;24.19;66.13
10480;BME280;12789;42.610;23.040;2022-08-02T07:42:23;93569.13;;;24.24;68.10
10480;BME280;12789;42.610;23.040;2022-08-02T07:44:50;93563.31;;;24.68;68.52
10480;BME280;12789;42.610;23.040;2022-08-02T07:47:17;93557.09;;;23.69;66.24
10480;BME280;12789;42.610;23.040;2022-08-02T07:49:45;93558.94;;;24.10;66.84
10480;BME280;12789;42.610;23.040;2022-08-02T07:52:13;93562.22;;;24.23;68.87
10480;BME280;12789;42.610;23.040;2022-08-02T07:54:40;93554.06;;;23.66;67.12
10480;BME280;12789;42.610;23.040;2022-08-02T07:57:08;93559.94;;;24.49;65.17
10480;BME280;12789;42.610;23.040;2022-08-02T07:59:35;93551.94;;;24.67;64.17
10480;BME280;12789;42.610;23.040;2022-08-02T08:02:02;93556.31;;;23.98;65.42
10480;BME280;12789;42.610;23.040;2022-08-02T08:04:30;93552.94;;;24.55;65.67
10480;BME280;12789;42.610;23.040;2022-08-02T08:06:56;93553.66;;;24.62;63.83
10480;BME280;12789;42.610;23.040;2022-08-02T08:09:25;93552.03;;;24.84;62.47
10480;BME280;12789;42.610;23.040;2022-08-02T08:11:53;93540.44;;;24.21;64.70
10480;BME280;12789;42.610;23.040;2022-08-02T08:14:20;93536.78;;;25.93;63.41
10480;BME280;12789;42.610;23.040;2022-08-02T08:16:47;93530.06;;;25.62;60.54
10480;BME280;12789;42.610;23.040;2022-08-02T08:19:14;93537.47;;;24.98;61.78
10480;BME280;12789;42.610;23.040;2022-08-02T08:21:41;93538.31;;;26.05;60.97
10480;BME280;12789;42.610;23.040;2022-08-02T08:24:08;93537.84;;;26.08;62.55
10480;BME280;12789;42.610;23.040;2022-08-02T08:26:37;93524.44;;;27.18;59.92
10480;BME280;12789;42.610;23.040;2022-08-02T08:29:05;93530.53;;;26.81;61.52
10480;BME280;12789;42.610;23.040;2022-08-02T08:31:32;93536.38;;;27.37;58.25
10480;BME280;12789;42.610;23.040;2022-08-02T08:33:59;93530.59;;;28.09;59.10
10480;BME280;12789;42.610;23.040;2022-08-02T08:36:27;93529.41;;;26.27;55.81
10480;BME280;12789;42.610;23.040;2022-08-02T08:38:55;93537.38;;;25.55;58.30
10480;BME280;12789;42.610;23.040;2022-08-02T08:41:22;93522.13;;;26.89;57.24
10480;BME280;12789;42.610;23.040;2022-08-02T08:43:51;93530.94;;;26.89;57.93
10480;BME280;12789;42.610;23.040;2022-08-02T08:46:25;93524.50;;;27.23;54.37
10480;BME280;12789;42.610;23.040;2022-08-02T08:48:54;93518.69;;;26.88;54.31
10480;BME280;12789;42.610;23.040;2022-08-02T08:51:29;93523.25;;;26.55;57.22
10480;BME280;12789;42.610;23.040;2022-08-02T08:53:58;93518.19;;;27.29;53.98
10480;BME280;12789;42.610;23.040;2022-08-02T08:56:31;93519.19;;;26.85;56.38
10480;BME280;12789;42.610;23.040;2022-08-02T08:59:01;93512.94;;;28.30;55.14
10480;BME280;12789;42.610;23.040;2022-08-02T09:01:29;93519.25;;;28.50;54.20
10480;BME280;12789;42.610;23.040;2022-08-02T09:03:57;93520.41;;;27.58;53.70
10480;BME280;12789;42.610;23.040;2022-08-02T09:06:24;93510.91;;;28.83;52.18
10480;BME280;12789;42.610;23.040;2022-08-02T09:08:52;93517.41;;;27.98;54.18
10480;BME280;12789;42.610;23.040;2022-08-02T09:11:22;93522.56;;;27.40;54.54
10480;BME280;12789;42.610;23.040;2022-08-02T09:13:52;93525.56;;;27.06;53.89
10480;BME280;12789;42.610;23.040;2022-08-02T09:16:32;93514.66;;;26.69;54.42
10480;BME280;12789;42.610;23.040;2022-08-02T09:19:00;93516.91;;;28.64;53.32
10480;BME280;12789;42.610;23.040;2022-08-02T09:21:42;93512.38;;;26.94;54.12
10480;BME280;12789;42.610;23.040;2022-08-02T09:24:17;93517.31;;;27.88;52.69
10480;BME280;12789;42.610;23.040;2022-08-02T09:26:45;93518.44;;;26.90;51.69
10480;BME280;12789;42.610;23.040;2022-08-02T09:29:13;93513.34;;;28.22;50.47
10480;BME280;12789;42.610;23.040;2022-08-02T09:31:43;93514.09;;;28.80;49.24
10480;BME280;12789;42.610;23.040;2022-08-02T09:34:10;93503.44;;;27.22;52.46
10480;BME280;12789;42.610;23.040;2022-08-02T09:36:39;93504.50;;;28.43;52.54
10480;BME280;12789;42.610;23.040;2022-08-02T09:39:09;93492.19;;;28.73;48.97
10480;BME280;12789;42.610;23.040;2022-08-02T09:41:38;93493.25;;;28.77;50.47
10480;BME280;12789;42.610;23.040;2022-08-02T09:44:08;93484.91;;;29.56;49.98
10480;BME280;12789;42.610;23.040;2022-08-02T09:46:37;93495.06;;;29.59;49.83
10480;BME280;12789;42.610;23.040;2022-08-02T09:49:07;93485.47;;;31.38;50.47
10480;BME280;12789;42.610;23.040;2022-08-02T09:51:38;93476.75;;;30.97;47.40
10480;BME280;12789;42.610;23.040;2022-08-02T09:54:07;93472.25;;;30.63;49.72
10480;BME280;12789;42.610;23.040;2022-08-02T09:56:43;93479.63;;;31.31;50.44
10480;BME280;12789;42.610;23.040;2022-08-02T09:59:11;93478.13;;;30.75;47.47
10480;BME280;12789;42.610;23.040;2022-08-02T10:01:39;93476.50;;;30.44;47.70
10480;BME280;12789;42.610;23.040;2022-08-02T10:04:09;93464.75;;;30.75;47.92
10480;BME280;12789;42.610;23.040;2022-08-02T10:06:38;93476.09;;;31.40;46.29
10480;BME280;12789;42.610;23.040;2022-08-02T10:09:06;93467.38;;;30.95;45.51
10480;BME280;12789;42.610;23.040;2022-08-02T10:11:34;93481.91;;;30.64;47.04
10480;BME280;12789;42.610;23.040;2022-08-02T10:14:02;93475.94;;;30.97;45.22
10480;BME280;12789;42.610;23.040;2022-08-02T10:16:33;93476.47;;;30.99;45.85
10480;BME280;12789;42.610;23.040;2022-08-02T10:19:00;93476.94;;;32.38;47.86
10480;BME280;12789;42.610;23.040;2022-08-02T10:21:32;93466.81;;;32.91;43.10
10480;BME280;12789;42.610;23.040;2022-08-02T10:24:05;93471.44;;;31.71;43.85
10480;BME280;12789;42.610;23.040;2022-08-02T10:26:33;93461.47;;;32.58;42.28
10480;BME280;12789;42.610;23.040;2022-08-02T10:29:01;93475.03;;;31.36;45.11
10480;BME280;12789;42.610;23.040;2022-08-02T10:31:33;93476.13;;;31.94;44.50
10480;BME280;12789;42.610;23.040;2022-08-02T10:34:02;93468.94;;;31.01;45.60
10480;BME280;12789;42.610;23.040;2022-08-02T10:36:32;93472.22;;;30.88;47.06
10480;BME280;12789;42.610;23.040;2022-08-02T10:39:01;93465.13;;;31.32;46.44
10480;BME280;12789;42.610;23.040;2022-08-02T10:41:53;93469.97;;;31.30;47.31
10480;BME280;12789;42.610;23.040;2022-08-02T10:44:22;93463.00;;;31.29;45.12
10480;BME280;12789;42.610;23.040;2022-08-02T10:46:50;93463.34;;;31.76;45.17
10480;BME280;12789;42.610;23.040;2022-08-02T10:49:18;93465.94;;;31.37;44.93
10480;BME280;12789;42.610;23.040;2022-08-02T10:52:08;93456.22;;;30.63;45.85
10480;BME280;12789;42.610;23.040;2022-08-02T10:54:36;93463.75;;;31.44;45.33
10480;BME280;12789;42.610;23.040;2022-08-02T10:57:14;93467.31;;;31.25;48.00
10480;BME280;12789;42.610;23.040;2022-08-02T10:59:41;93464.22;;;30.68;45.35
10480;BME280;12789;42.610;23.040;2022-08-02T11:02:10;93456.47;;;30.12;45.62
10480;BME280;12789;42.610;23.040;2022-08-02T11:05:00;93452.75;;;31.99;42.19
10480;BME280;12789;42.610;23.040;2022-08-02T11:07:34;93453.50;;;30.73;44.69
10480;BME280;12789;42.610;23.040;2022-08-02T11:10:35;93449.28;;;32.37;42.99
10480;BME280;12789;42.610;23.040;2022-08-02T11:13:07;93454.84;;;30.11;44.04
10480;BME280;12789;42.610;23.040;2022-08-02T11:15:55;93454.03;;;30.80;44.99
10480;BME280;12789;42.610;23.040;2022-08-02T11:21:27;93458.41;;;31.98;43.02
10480;BME280;12789;42.610;23.040;2022-08-02T11:24:23;93446.50;;;33.32;44.49
10480;BME280;12789;42.610;23.040;2022-08-02T11:26:51;93450.94;;;32.66;43.13
10480;BME280;12789;42.610;23.040;2022-08-02T11:29:18;93457.72;;;32.26;43.31
10480;BME280;12789;42.610;23.040;2022-08-02T11:31:46;93446.19;;;33.57;43.42
10480;BME280;12789;42.610;23.040;2022-08-02T11:34:15;93446.69;;;33.17;43.32
10480;BME280;12789;42.610;23.040;2022-08-02T11:36:46;93449.88;;;31.91;42.07
10480;BME280;12789;42.610;23.040;2022-08-02T11:39:17;93447.53;;;33.36;41.46
10480;BME280;12789;42.610;23.040;2022-08-02T11:41:48;93447.78;;;34.00;41.62
10480;BME280;12789;42.610;23.040;2022-08-02T11:44:16;93455.31;;;31.81;43.61
10480;BME280;12789;42.610;23.040;2022-08-02T11:46:43;93460.91;;;31.84;44.91
10480;BME280;12789;42.610;23.040;2022-08-02T11:49:17;93450.28;;;32.08;43.27
10480;BME280;12789;42.610;23.040;2022-08-02T11:51:51;93448.69;;;31.63;45.66
10480;BME280;12789;42.610;23.040;2022-08-02T11:54:37;93447.84;;;33.06;43.62
10480;BME280;12789;42.610;23.040;2022-08-02T11:57:10;93453.81;;;32.03;44.35
10480;BME280;12789;42.610;23.040;2022-08-02T11:59:37;93457.19;;;31.75;43.90
10480;BME280;12789;42.610;23.040;2022-08-02T12:02:05;93458.25;;;30.96;43.97
10480;BME280;12789;42.610;23.040;2022-08-02T12:04:33;93447.09;;;30.74;43.94
10480;BME280;12789;42.610;23.040;2022-08-02T12:07:01;93439.50;;;32.13;42.15
10480;BME280;12789;42.610;23.040;2022-08-02T12:09:33;93440.38;;;32.42;43.14
10480;BME280;12789;42.610;23.040;2022-08-02T12:12:01;93441.66;;;32.16;41.40
10480;BME280;12789;42.610;23.040;2022-08-02T12:14:30;93446.13;;;31.33;42.65
10480;BME280;12789;42.610;23.040;2022-08-02T12:16:58;93450.69;;;32.30;43.27
10480;BME280;12789;42.610;23.040;2022-08-02T12:19:42;93462.47;;;31.32;44.16
10480;BME280;12789;42.610;23.040;2022-08-02T12:22:14;93459.28;;;31.25;46.38
10480;BME280;12789;42.610;23.040;2022-08-02T12:24:45;93462.88;;;30.06;45.90
10480;BME280;12789;42.610;23.040;2022-08-02T12:27:29;93456.66;;;31.05;44.87
10480;BME280;12789;42.610;23.040;2022-08-02T12:30:03;93461.81;;;31.65;44.81
10480;BME280;12789;42.610;23.040;2022-08-02T12:32:30;93454.75;;;31.79;44.41
10480;BME280;12789;42.610;23.040;2022-08-02T12:35:05;93457.94;;;31.86;46.26
10480;BME280;12789;42.610;23.040;2022-08-02T12:37:33;93461.13;;;31.34;43.34
10480;BME280;12789;42.610;23.040;2022-08-02T12:40:17;93446.38;;;31.32;44.41
10480;BME280;12789;42.610;23.040;2022-08-02T12:42:45;93447.44;;;32.33;43.54
10480;BME280;12789;42.610;23.040;2022-08-02T12:45:12;93442.97;;;32.51;43.39
10480;BME280;12789;42.610;23.040;2022-08-02T12:47:44;93431.53;;;32.03;42.26
10480;BME280;12789;42.610;23.040;2022-08-02T12:50:15;93432.88;;;33.00;40.63
10480;BME280;12789;42.610;23.040;2022-08-02T12:52:43;93438.84;;;31.39;42.72
10480;BME280;12789;42.610;23.040;2022-08-02T12:55:19;93429.41;;;32.71;40.60
10480;BME280;12789;42.610;23.040;2022-08-02T12:57:54;93427.91;;;33.12;39.29
10480;BME280;12789;42.610;23.040;2022-08-02T13:00:24;93421.88;;;35.32;36.70
10480;BME280;12789;42.610;23.040;2022-08-02T13:02:51;93423.41;;;34.79;37.12